sensor_id;sensor_type;location;lat;lon;timestamp;temperature;humidity
7413;DHT22;3748;48.136;11.538;2022-12-07T00:00:14;2.30;99.90
7413;DHT22;3748;48.136;11.538;2022-12-07T00:02:42;2.30;99.90
7413;DHT22;3748;48.136;11.538;2022-12-07T00:05:09;2.20;99.90
7413;DHT22;3748;48.136;11.538;2022-12-07T00:07:36;2.20;99.90
7413;DHT22;3748;48.136;11.538;2022-12-07T00:10:06;2.20;99.90
7413;DHT22;3748;48.136;11.538;2022-12-07T00:12:33;2.20;99.90
7413;DHT22;3748;48.136;11.538;2022-12-07T00:15:00;2.10;99.90
7413;DHT22;3748;48.136;11.538;2022-12-07T00:17:27;2.10;99.90
7413;DHT22;3748;48.136;11.538;2022-12-07T00:19:55;2.10;99.90
7413;DHT22;3748;48.136;11.538;2022-12-07T00:22:22;2.10;99.90
7413;DHT22;3748;48.136;11.538;2022-12-07T00:24:48;2.20;99.90
7413;DHT22;3748;48.136;11.538;2022-12-07T00:27:15;2.20;99.90
7413;DHT22;3748;48.136;11.538;2022-12-07T00:29:42;2.20;99.90
7413;DHT22;3748;48.136;11.538;2022-12-07T00:32:09;2.10;99.90
7413;DHT22;3748;48.136;11.538;2022-12-07T00:34:36;2.10;99.90
7413;DHT22;3748;48.136;11.538;2022-12-07T00:37:04;2.20;99.90
7413;DHT22;3748;48.136;11.538;2022-12-07T00:39:31;2.10;99.90
7413;DHT22;3748;48.136;11.538;2022-12-07T00:41:57;2.00;99.90
7413;DHT22;3748;48.136;11.538;2022-12-07T00:44:24;2.10;99.90
7413;DHT22;3748;48.136;11.538;2022-12-07T00:46:51;2.10;99.90
7413;DHT22;3748;48.136;11.538;2022-12-07T00:49:18;2.10;99.90
7413;DHT22;3748;48.136;11.538;2022-12-07T00:51:45;2.10;99.90
7413;DHT22;3748;48.136;11.538;2022-12-07T00:54:15;2.10;99.90
7413;DHT22;3748;48.136;11.538;2022-12-07T00:56:42;2.10;99.90
7413;DHT22;3748;48.136;11.538;2022-12-07T00:59:12;2.00;99.90
7413;DHT22;3748;48.136;11.538;2022-12-07T01:01:40;2.00;99.90
7413;DHT22;3748;48.136;11.538;2022-12-07T01:04:07;2.00;99.90
7413;DHT22;3748;48.136;11.538;2022-12-07T01:06:34;2.00;99.90
7413;DHT22;3748;48.136;11.538;2022-12-07T01:09:02;2.00;99.90
7413;DHT22;3748;48.136;11.538;2022-12-07T01:11:30;2.00;99.90
7413;DHT22;3748;48.136;11.538;2022-12-07T01:13:59;2.10;99.90
7413;DHT22;3748;48.136;11.538;2022-12-07T01:16:28;2.10;99.90
7413;DHT22;3748;48.136;11.538;2022-12-07T01:18:56;2.10;99.90
7413;DHT22;3748;48.136;11.538;2022-12-07T01:21:25;2.20;99.90
7413;DHT22;3748;48.136;11.538;2022-12-07T01:23:52;2.30;99.90
7413;DHT22;3748;48.136;11.538;2022-12-07T01:26:21;2.40;99.90
7413;DHT22;3748;48.136;11.538;2022-12-07T01:28:49;2.40;99.90
7413;DHT22;3748;48.136;11.538;2022-12-07T01:31:18;2.60;99.90
7413;DHT22;3748;48.136;11.538;2022-12-07T01:33:48;2.50;99.90
7413;DHT22;3748;48.136;11.538;2022-12-07T01:36:17;2.30;99.90
7413;DHT22;3748;48.136;11.538;2022-12-07T01:38:45;2.30;99.90
7413;DHT22;3748;48.136;11.538;2022-12-07T01:41:13;2.40;99.90
7413;DHT22;3748;48.136;11.538;2022-12-07T01:46:48;2.40;99.90
7413;DHT22;3748;48.136;11.538;2022-12-07T01:49:37;2.40;99.90
7413;DHT22;3748;48.136;11.538;2022-12-07T01:52:13;2.30;99.90
7413;DHT22;3748;48.136;11.538;2022-12-07T01:54:42;2.20;99.90
7413;DHT22;3748;48.136;11.538;2022-12-07T01:57:11;2.00;99.90
7413;DHT22;3748;48.136;11.538;2022-12-07T01:59:38;2.00;99.90
7413;DHT22;3748;48.136;11.538;2022-12-07T02:02:10;2.00;99.90
7413;DHT22;3748;48.136;11.538;2022-12-07T02:04:39;2.00;99.90
7413;DHT22;3748;48.136;11.538;2022-12-07T02:07:06;2.00;99.90
7413;DHT22;3748;48.136;11.538;2022-12-07T02:09:33;2.00;99.90
7413;DHT22;3748;48.136;11.538;2022-12-07T02:12:00;2.00;99.90
7413;DHT22;3748;48.136;11.538;2022-12-07T02:14:27;2.00;99.90
7413;DHT22;3748;48.136;11.538;2022-12-07T02:17:05;2.00;99.90
7413;DHT22;3748;48.136;11.538;2022-12-07T02:20:16;2.00;99.90
7413;DHT22;3748;48.136;11.538;2022-12-07T02:23:10;2.00;99.90
7413;DHT22;3748;48.136;11.538;2022-12-07T02:26:10;2.00;99.90
7413;DHT22;3748;48.136;11.538;2022-12-07T02:29:02;2.00;99.90
7413;DHT22;3748;48.136;11.538;2022-12-07T02:31:32;2.10;99.90
7413;DHT22;3748;48.136;11.538;2022-12-07T02:34:05;2.20;99.90
7413;DHT22;3748;48.136;11.538;2022-12-07T02:36:39;2.20;99.90
7413;DHT22;3748;48.136;11.538;2022-12-07T02:39:08;2.10;99.90
7413;DHT22;3748;48.136;11.538;2022-12-07T02:41:42;1.90;99.90
7413;DHT22;3748;48.136;11.538;2022-12-07T02:44:14;1.90;99.90
7413;DHT22;3748;48.136;11.538;2022-12-07T02:46:46;2.00;99.90
7413;DHT22;3748;48.136;11.538;2022-12-07T02:49:15;2.00;99.90
7413;DHT22;3748;48.136;11.538;2022-12-07T02:51:44;2.00;99.90
7413;DHT22;3748;48.136;11.538;2022-12-07T02:54:13;1.90;99.90
7413;DHT22;3748;48.136;11.538;2022-12-07T02:56:46;1.90;99.90
7413;DHT22;3748;48.136;11.538;2022-12-07T02:59:20;1.90;99.90
7413;DHT22;3748;48.136;11.538;2022-12-07T03:01:56;1.90;99.90
7413;DHT22;3748;48.136;11.538;2022-12-07T03:04:33;1.90;99.90
7413;DHT22;3748;48.136;11.538;2022-12-07T03:07:08;1.90;99.90
7413;DHT22;3748;48.136;11.538;2022-12-07T03:09:44;1.90;99.90
7413;DHT22;3748;48.136;11.538;2022-12-07T03:12:19;1.90;99.90
7413;DHT22;3748;48.136;11.538;2022-12-07T03:14:55;1.20;99.90
7413;DHT22;3748;48.136;11.538;2022-12-07T03:17:26;1.90;99.90
7413;DHT22;3748;48.136;11.538;2022-12-07T03:19:58;1.90;99.90
7413;DHT22;3748;48.136;11.538;2022-12-07T03:22:29;2.00;99.90
7413;DHT22;3748;48.136;11.538;2022-12-07T03:25:00;2.00;99.90
7413;DHT22;3748;48.136;11.538;2022-12-07T03:27:31;2.10;99.90
7413;DHT22;3748;48.136;11.538;2022-12-07T03:30:02;2.10;99.90
7413;DHT22;3748;48.136;11.538;2022-12-07T03:32:33;2.40;99.90
7413;DHT22;3748;48.136;11.538;2022-12-07T03:35:03;2.30;99.90
7413;DHT22;3748;48.136;11.538;2022-12-07T03:37:34;2.30;99.90
7413;DHT22;3748;48.136;11.538;2022-12-07T03:40:07;2.40;99.90
7413;DHT22;3748;48.136;11.538;2022-12-07T03:42:38;2.40;99.90
7413;DHT22;3748;48.136;11.538;2022-12-07T03:45:07;2.40;99.90
7413;DHT22;3748;48.136;11.538;2022-12-07T03:47:39;2.40;99.90
7413;DHT22;3748;48.136;11.538;2022-12-07T03:50:13;2.50;99.90
7413;DHT22;3748;48.136;11.538;2022-12-07T03:52:43;2.50;99.90
7413;DHT22;3748;48.136;11.538;2022-12-07T03:55:16;2.40;99.90
7413;DHT22;3748;48.136;11.538;2022-12-07T03:57:47;2.50;99.90
7413;DHT22;3748;48.136;11.538;2022-12-07T04:00:16;2.40;99.90
7413;DHT22;3748;48.136;11.538;2022-12-07T04:02:44;2.40;99.90
7413;DHT22;3748;48.136;11.538;2022-12-07T04:05:11;2.50;99.90
7413;DHT22;3748;48.136;11.538;2022-12-07T04:07:38;2.50;99.90
7413;DHT22;3748;48.136;11.538;2022-12-07T04:10:06;2.50;99.90
7413;DHT22;3748;48.136;11.538;2022-12-07T04:12:33;2.50;99.90
7413;DHT22;3748;48.136;11.538;2022-12-07T04:14:59;2.40;99.90
7413;DHT22;3748;48.136;11.538;2022-12-07T04:17:28;2.40;99.90
7413;DHT22;3748;48.136;11.538;2022-12-07T04:19:54;2.20;99.90
7413;DHT22;3748;48.136;11.538;2022-12-07T04:22:21;2.00;99.90
7413;DHT22;3748;48.136;11.538;2022-12-07T04:24:48;2.00;99.90
7413;DHT22;3748;48.136;11.538;2022-12-07T04:27:15;2.00;99.90
7413;DHT22;3748;48.136;11.538;2022-12-07T04:29:42;1.90;99.90
7413;DHT22;3748;48.136;11.538;2022-12-07T04:32:08;1.90;99.90
7413;DHT22;3748;48.136;11.538;2022-12-07T04:34:38;1.90;99.90
7413;DHT22;3748;48.136;11.538;2022-12-07T04:37:04;1.80;99.90
7413;DHT22;3748;48.136;11.538;2022-12-07T04:39:32;1.90;99.90
7413;DHT22;3748;48.136;11.538;2022-12-07T04:42:00;1.90;99.90
7413;DHT22;3748;48.136;11.538;2022-12-07T04:44:28;1.90;99.90
7413;DHT22;3748;48.136;11.538;2022-12-07T04:46:56;1.80;99.90
7413;DHT22;3748;48.136;11.538;2022-12-07T04:49:24;1.80;99.90
7413;DHT22;3748;48.136;11.538;2022-12-07T04:51:52;1.90;99.90
7413;DHT22;3748;48.136;11.538;2022-12-07T04:54:19;1.90;99.90
7413;DHT22;3748;48.136;11.538;2022-12-07T04:56:46;1.80;99.90
7413;DHT22;3748;48.136;11.538;2022-12-07T04:59:14;1.80;99.90
7413;DHT22;3748;48.136;11.538;2022-12-07T05:01:42;1.80;99.90
7413;DHT22;3748;48.136;11.538;2022-12-07T05:04:09;1.70;99.90
7413;DHT22;3748;48.136;11.538;2022-12-07T05:06:36;1.70;99.90
7413;DHT22;3748;48.136;11.538;2022-12-07T05:09:04;1.70;99.90
7413;DHT22;3748;48.136;11.538;2022-12-07T05:11:31;1.70;99.90
7413;DHT22;3748;48.136;11.538;2022-12-07T05:14:10;1.60;99.90
7413;DHT22;3748;48.136;11.538;2022-12-07T05:16:38;1.70;99.90
7413;DHT22;3748;48.136;11.538;2022-12-07T05:19:06;1.60;99.90
7413;DHT22;3748;48.136;11.538;2022-12-07T05:21:33;1.50;99.90
7413;DHT22;3748;48.136;11.538;2022-12-07T05:24:01;1.50;99.90
7413;DHT22;3748;48.136;11.538;2022-12-07T05:26:29;1.50;99.90
7413;DHT22;3748;48.136;11.538;2022-12-07T05:28:58;1.60;99.90
7413;DHT22;3748;48.136;11.538;2022-12-07T05:31:29;1.60;99.90
7413;DHT22;3748;48.136;11.538;2022-12-07T05:33:56;1.50;99.90
7413;DHT22;3748;48.136;11.538;2022-12-07T05:36:23;1.60;99.90
7413;DHT22;3748;48.136;11.538;2022-12-07T05:38:50;1.50;99.90
7413;DHT22;3748;48.136;11.538;2022-12-07T05:41:18;1.60;99.90
7413;DHT22;3748;48.136;11.538;2022-12-07T05:44:04;1.50;99.90
7413;DHT22;3748;48.136;11.538;2022-12-07T05:46:31;1.50;99.90
7413;DHT22;3748;48.136;11.538;2022-12-07T05:48:58;1.50;99.90
7413;DHT22;3748;48.136;11.538;2022-12-07T05:51:25;1.50;99.90
7413;DHT22;3748;48.136;11.538;2022-12-07T05:53:52;1.60;99.90
7413;DHT22;3748;48.136;11.538;2022-12-07T05:56:18;1.60;99.90
7413;DHT22;3748;48.136;11.538;2022-12-07T05:58:45;1.50;99.90
7413;DHT22;3748;48.136;11.538;2022-12-07T06:01:31;1.50;99.90
7413;DHT22;3748;48.136;11.538;2022-12-07T06:03:58;1.40;99.90
7413;DHT22;3748;48.136;11.538;2022-12-07T06:06:24;1.50;99.90
7413;DHT22;3748;48.136;11.538;2022-12-07T06:08:51;1.50;99.90
7413;DHT22;3748;48.136;11.538;2022-12-07T06:11:18;1.50;99.90
7413;DHT22;3748;48.136;11.538;2022-12-07T06:14:02;1.50;99.90
7413;DHT22;3748;48.136;11.538;2022-12-07T06:16:30;1.50;99.90
7413;DHT22;3748;48.136;11.538;2022-12-07T06:18:57;1.60;99.90
7413;DHT22;3748;48.136;11.538;2022-12-07T06:21:24;1.50;99.90
7413;DHT22;3748;48.136;11.538;2022-12-07T06:23:52;1.80;99.90
7413;DHT22;3748;48.136;11.538;2022-12-07T06:26:19;1.60;99.90
7413;DHT22;3748;48.136;11.538;2022-12-07T06:28:46;1.60;99.90
7413;DHT22;3748;48.136;11.538;2022-12-07T06:31:13;1.60;99.90
7413;DHT22;3748;48.136;11.538;2022-12-07T06:33:42;1.50;99.90
7413;DHT22;3748;48.136;11.538;2022-12-07T06:36:10;1.60;99.90
7413;DHT22;3748;48.136;11.538;2022-12-07T06:38:38;1.60;99.90
7413;DHT22;3748;48.136;11.538;2022-12-07T06:52:25;1.50;99.90
7413;DHT22;3748;48.136;11.538;2022-12-07T06:54:52;1.50;99.90
7413;DHT22;3748;48.136;11.538;2022-12-07T07:04:59;1.50;99.90
7413;DHT22;3748;48.136;11.538;2022-12-07T07:07:27;1.50;99.90
7413;DHT22;3748;48.136;11.538;2022-12-07T07:09:54;1.50;99.90
7413;DHT22;3748;48.136;11.538;2022-12-07T07:12:21;1.50;99.90
7413;DHT22;3748;48.136;11.538;2022-12-07T07:14:47;1.60;99.90
7413;DHT22;3748;48.136;11.538;2022-12-07T07:17:14;1.60;99.90
7413;DHT22;3748;48.136;11.538;2022-12-07T07:19:41;1.60;99.90
7413;DHT22;3748;48.136;11.538;2022-12-07T07:22:08;1.60;99.90
7413;DHT22;3748;48.136;11.538;2022-12-07T07:24:36;1.60;99.90
7413;DHT22;3748;48.136;11.538;2022-12-07T07:27:03;1.60;99.90
7413;DHT22;3748;48.136;11.538;2022-12-07T07:29:30;1.60;99.90
7413;DHT22;3748;48.136;11.538;2022-12-07T07:31:57;1.50;99.90
7413;DHT22;3748;48.136;11.538;2022-12-07T07:34:24;1.50;99.90
7413;DHT22;3748;48.136;11.538;2022-12-07T07:36:50;1.50;99.90
7413;DHT22;3748;48.136;11.538;2022-12-07T07:39:17;1.50;99.90
7413;DHT22;3748;48.136;11.538;2022-12-07T07:41:46;1.50;99.90
7413;DHT22;3748;48.136;11.538;2022-12-07T07:44:13;1.50;99.90
7413;DHT22;3748;48.136;11.538;2022-12-07T07:46:40;1.50;99.90
7413;DHT22;3748;48.136;11.538;2022-12-07T07:49:08;1.60;99.90
7413;DHT22;3748;48.136;11.538;2022-12-07T07:51:35;1.90;99.90
7413;DHT22;3748;48.136;11.538;2022-12-07T07:54:02;2.00;99.90
7413;DHT22;3748;48.136;11.538;2022-12-07T07:56:29;2.00;99.90
7413;DHT22;3748;48.136;11.538;2022-12-07T07:58:57;2.00;99.90
7413;DHT22;3748;48.136;11.538;2022-12-07T08:01:26;1.70;99.90
7413;DHT22;3748;48.136;11.538;2022-12-07T08:03:53;1.90;99.90
7413;DHT22;3748;48.136;11.538;2022-12-07T08:06:20;1.80;99.90
7413;DHT22;3748;48.136;11.538;2022-12-07T08:08:47;2.10;99.90
7413;DHT22;3748;48.136;11.538;2022-12-07T08:11:15;1.90;99.90
7413;DHT22;3748;48.136;11.538;2022-12-07T08:13:45;1.80;99.90
7413;DHT22;3748;48.136;11.538;2022-12-07T08:16:13;2.00;99.90
7413;DHT22;3748;48.136;11.538;2022-12-07T13:00:18;4.20;99.90
7413;DHT22;3748;48.136;11.538;2022-12-07T13:08:46;4.00;99.90
7413;DHT22;3748;48.136;11.538;2022-12-07T13:11:18;4.40;99.90
7413;DHT22;3748;48.136;11.538;2022-12-07T13:13:46;3.90;99.90
7413;DHT22;3748;48.136;11.538;2022-12-07T13:16:37;3.90;99.90
7413;DHT22;3748;48.136;11.538;2022-12-07T13:25:12;5.10;99.90
7413;DHT22;3748;48.136;11.538;2022-12-07T13:27:50;6.10;99.90
7413;DHT22;3748;48.136;11.538;2022-12-07T13:30:21;7.10;99.90
7413;DHT22;3748;48.136;11.538;2022-12-07T13:32:53;7.10;99.90
7413;DHT22;3748;48.136;11.538;2022-12-07T13:35:32;5.70;99.90
7413;DHT22;3748;48.136;11.538;2022-12-07T13:38:02;4.90;99.90
7413;DHT22;3748;48.136;11.538;2022-12-07T13:40:30;4.20;99.90
7413;DHT22;3748;48.136;11.538;2022-12-07T13:42:58;4.00;99.90
7413;DHT22;3748;48.136;11.538;2022-12-07T13:56:35;3.70;99.90
7413;DHT22;3748;48.136;11.538;2022-12-07T13:59:03;3.60;99.90
7413;DHT22;3748;48.136;11.538;2022-12-07T14:01:32;3.70;99.90
7413;DHT22;3748;48.136;11.538;2022-12-07T14:04:17;3.80;99.90
7413;DHT22;3748;48.136;11.538;2022-12-07T14:06:48;3.60;99.90
7413;DHT22;3748;48.136;11.538;2022-12-07T14:09:18;3.60;99.90
7413;DHT22;3748;48.136;11.538;2022-12-07T14:11:48;3.50;99.90
7413;DHT22;3748;48.136;11.538;2022-12-07T14:14:22;3.50;99.90
7413;DHT22;3748;48.136;11.538;2022-12-07T14:16:58;3.70;99.90
7413;DHT22;3748;48.136;11.538;2022-12-07T14:19:47;3.60;99.90
7413;DHT22;3748;48.136;11.538;2022-12-07T14:25:19;3.60;99.90
7413;DHT22;3748;48.136;11.538;2022-12-07T14:27:56;3.60;99.90
7413;DHT22;3748;48.136;11.538;2022-12-07T14:30:26;3.70;99.90
7413;DHT22;3748;48.136;11.538;2022-12-07T14:32:56;3.60;99.90
7413;DHT22;3748;48.136;11.538;2022-12-07T14:35:23;4.80;99.90
7413;DHT22;3748;48.136;11.538;2022-12-07T14:37:50;3.60;99.90
7413;DHT22;3748;48.136;11.538;2022-12-07T14:40:19;3.60;99.90
7413;DHT22;3748;48.136;11.538;2022-12-07T14:42:48;3.60;99.90
7413;DHT22;3748;48.136;11.538;2022-12-07T14:45:21;3.30;99.90
7413;DHT22;3748;48.136;11.538;2022-12-07T14:47:48;3.50;99.90
7413;DHT22;3748;48.136;11.538;2022-12-07T14:50:17;3.50;99.90
7413;DHT22;3748;48.136;11.538;2022-12-07T14:52:47;3.50;99.90
7413;DHT22;3748;48.136;11.538;2022-12-07T14:55:21;3.40;99.90
7413;DHT22;3748;48.136;11.538;2022-12-07T14:57:49;3.40;99.90
7413;DHT22;3748;48.136;11.538;2022-12-07T15:00:21;3.30;99.90
7413;DHT22;3748;48.136;11.538;2022-12-07T15:02:49;3.30;99.90
7413;DHT22;3748;48.136;11.538;2022-12-07T15:05:18;3.30;99.90
7413;DHT22;3748;48.136;11.538;2022-12-07T15:07:46;3.30;99.90
7413;DHT22;3748;48.136;11.538;2022-12-07T15:10:16;3.30;99.90
7413;DHT22;3748;48.136;11.538;2022-12-07T15:12:44;3.30;99.90
7413;DHT22;3748;48.136;11.538;2022-12-07T15:15:11;3.20;99.90
7413;DHT22;3748;48.136;11.538;2022-12-07T15:17:40;3.30;99.90
7413;DHT22;3748;48.136;11.538;2022-12-07T15:20:11;3.20;99.90
7413;DHT22;3748;48.136;11.538;2022-12-07T15:22:38;3.30;99.90
7413;DHT22;3748;48.136;11.538;2022-12-07T15:25:06;3.20;99.90
7413;DHT22;3748;48.136;11.538;2022-12-07T15:27:33;3.20;99.90
7413;DHT22;3748;48.136;11.538;2022-12-07T15:30:00;3.20;99.90
7413;DHT22;3748;48.136;11.538;2022-12-07T15:32:27;3.30;99.90
7413;DHT22;3748;48.136;11.538;2022-12-07T15:34:55;3.20;99.90
7413;DHT22;3748;48.136;11.538;2022-12-07T15:37:22;3.30;99.90
7413;DHT22;3748;48.136;11.538;2022-12-07T15:39:49;3.30;99.90
7413;DHT22;3748;48.136;11.538;2022-12-07T15:42:15;3.30;99.90
7413;DHT22;3748;48.136;11.538;2022-12-07T15:44:42;3.30;99.90
7413;DHT22;3748;48.136;11.538;2022-12-07T15:47:26;3.20;99.90
7413;DHT22;3748;48.136;11.538;2022-12-07T15:49:54;3.10;99.90
7413;DHT22;3748;48.136;11.538;2022-12-07T15:52:21;3.00;99.90
7413;DHT22;3748;48.136;11.538;2022-12-07T15:54:48;2.90;99.90
7413;DHT22;3748;48.136;11.538;2022-12-07T15:57:15;2.90;99.90
7413;DHT22;3748;48.136;11.538;2022-12-07T15:59:42;3.00;99.90
7413;DHT22;3748;48.136;11.538;2022-12-07T16:02:09;3.00;99.90
7413;DHT22;3748;48.136;11.538;2022-12-07T16:04:36;2.70;99.90
7413;DHT22;3748;48.136;11.538;2022-12-07T16:07:04;2.60;99.90
7413;DHT22;3748;48.136;11.538;2022-12-07T16:09:32;2.60;99.90
7413;DHT22;3748;48.136;11.538;2022-12-07T16:11:59;2.60;99.90
7413;DHT22;3748;48.136;11.538;2022-12-07T16:14:25;2.50;99.90
7413;DHT22;3748;48.136;11.538;2022-12-07T16:16:52;2.50;99.90
7413;DHT22;3748;48.136;11.538;2022-12-07T16:19:19;2.50;99.90
7413;DHT22;3748;48.136;11.538;2022-12-07T16:21:46;2.50;99.90
7413;DHT22;3748;48.136;11.538;2022-12-07T16:24:15;2.40;99.90
7413;DHT22;3748;48.136;11.538;2022-12-07T16:26:42;2.40;99.90
7413;DHT22;3748;48.136;11.538;2022-12-07T16:29:11;2.40;99.90
7413;DHT22;3748;48.136;11.538;2022-12-07T16:31:39;2.50;99.90
7413;DHT22;3748;48.136;11.538;2022-12-07T16:34:06;2.70;99.90
7413;DHT22;3748;48.136;11.538;2022-12-07T16:36:34;2.50;99.90
7413;DHT22;3748;48.136;11.538;2022-12-07T16:39:01;2.40;99.90
7413;DHT22;3748;48.136;11.538;2022-12-07T16:41:30;2.40;99.90
7413;DHT22;3748;48.136;11.538;2022-12-07T16:43:57;2.30;99.90
7413;DHT22;3748;48.136;11.538;2022-12-07T16:46:28;2.30;99.90
7413;DHT22;3748;48.136;11.538;2022-12-07T16:48:55;2.30;99.90
7413;DHT22;3748;48.136;11.538;2022-12-07T16:51:22;2.30;99.90
7413;DHT22;3748;48.136;11.538;2022-12-07T16:53:53;2.30;99.90
7413;DHT22;3748;48.136;11.538;2022-12-07T16:56:20;2.20;99.90
7413;DHT22;3748;48.136;11.538;2022-12-07T16:58:49;2.20;99.90
7413;DHT22;3748;48.136;11.538;2022-12-07T17:01:18;2.20;99.90
7413;DHT22;3748;48.136;11.538;2022-12-07T17:03:46;2.20;99.90
7413;DHT22;3748;48.136;11.538;2022-12-07T17:06:15;2.10;99.90
7413;DHT22;3748;48.136;11.538;2022-12-07T17:08:42;2.20;99.90
7413;DHT22;3748;48.136;11.538;2022-12-07T17:11:11;2.10;99.90
7413;DHT22;3748;48.136;11.538;2022-12-07T17:13:38;2.10;99.90
7413;DHT22;3748;48.136;11.538;2022-12-07T17:16:24;2.10;99.90
7413;DHT22;3748;48.136;11.538;2022-12-07T17:18:51;2.10;99.90
7413;DHT22;3748;48.136;11.538;2022-12-07T17:21:18;2.10;99.90
7413;DHT22;3748;48.136;11.538;2022-12-07T17:23:45;2.10;99.90
7413;DHT22;3748;48.136;11.538;2022-12-07T17:26:15;2.10;99.90
7413;DHT22;3748;48.136;11.538;2022-12-07T17:28:43;2.10;99.90
7413;DHT22;3748;48.136;11.538;2022-12-07T17:31:11;2.10;99.90
7413;DHT22;3748;48.136;11.538;2022-12-07T17:33:41;2.00;99.90
7413;DHT22;3748;48.136;11.538;2022-12-07T17:36:12;2.00;99.90
7413;DHT22;3748;48.136;11.538;2022-12-07T17:38:41;2.10;99.90
7413;DHT22;3748;48.136;11.538;2022-12-07T17:41:10;1.80;99.90
7413;DHT22;3748;48.136;11.538;2022-12-07T17:44:01;1.80;99.90
7413;DHT22;3748;48.136;11.538;2022-12-07T17:46:30;1.80;99.90
7413;DHT22;3748;48.136;11.538;2022-12-07T17:48:59;1.80;99.90
7413;DHT22;3748;48.136;11.538;2022-12-07T17:51:26;1.60;99.90
7413;DHT22;3748;48.136;11.538;2022-12-07T17:54:11;1.70;99.90
7413;DHT22;3748;48.136;11.538;2022-12-07T17:56:38;1.60;99.90
7413;DHT22;3748;48.136;11.538;2022-12-07T17:59:06;1.70;99.90
7413;DHT22;3748;48.136;11.538;2022-12-07T18:01:33;1.70;99.90
7413;DHT22;3748;48.136;11.538;2022-12-07T18:04:02;1.60;99.90
7413;DHT22;3748;48.136;11.538;2022-12-07T18:06:29;1.50;99.90
7413;DHT22;3748;48.136;11.538;2022-12-07T18:08:56;1.50;99.90
7413;DHT22;3748;48.136;11.538;2022-12-07T18:11:24;1.60;99.90
7413;DHT22;3748;48.136;11.538;2022-12-07T18:13:51;1.50;99.90
7413;DHT22;3748;48.136;11.538;2022-12-07T18:16:20;1.50;99.90
7413;DHT22;3748;48.136;11.538;2022-12-07T18:18:48;1.50;99.90
7413;DHT22;3748;48.136;11.538;2022-12-07T18:21:21;1.60;99.90
7413;DHT22;3748;48.136;11.538;2022-12-07T18:23:50;1.70;99.90
7413;DHT22;3748;48.136;11.538;2022-12-07T18:26:18;1.70;99.90
7413;DHT22;3748;48.136;11.538;2022-12-07T18:28:46;1.70;99.90
7413;DHT22;3748;48.136;11.538;2022-12-07T18:31:13;1.70;99.90
7413;DHT22;3748;48.136;11.538;2022-12-07T18:33:41;1.70;99.90
7413;DHT22;3748;48.136;11.538;2022-12-07T18:36:08;1.80;99.90
7413;DHT22;3748;48.136;11.538;2022-12-07T18:38:37;1.80;99.90
7413;DHT22;3748;48.136;11.538;2022-12-07T18:41:06;1.80;99.90
7413;DHT22;3748;48.136;11.538;2022-12-07T18:43:34;1.80;99.90
7413;DHT22;3748;48.136;11.538;2022-12-07T18:46:01;1.80;99.90
7413;DHT22;3748;48.136;11.538;2022-12-07T18:48:35;1.80;99.90
7413;DHT22;3748;48.136;11.538;2022-12-07T18:51:04;1.90;99.90
7413;DHT22;3748;48.136;11.538;2022-12-07T18:53:32;1.90;99.90
7413;DHT22;3748;48.136;11.538;2022-12-07T18:56:02;1.90;99.90
7413;DHT22;3748;48.136;11.538;2022-12-07T18:58:30;1.90;99.90
7413;DHT22;3748;48.136;11.538;2022-12-07T19:00:57;1.90;99.90
7413;DHT22;3748;48.136;11.538;2022-12-07T19:03:27;1.90;99.90
7413;DHT22;3748;48.136;11.538;2022-12-07T19:05:59;2.00;99.90
7413;DHT22;3748;48.136;11.538;2022-12-07T19:08:33;1.90;99.90
7413;DHT22;3748;48.136;11.538;2022-12-07T19:11:03;1.90;99.90
7413;DHT22;3748;48.136;11.538;2022-12-07T19:13:50;1.90;99.90
7413;DHT22;3748;48.136;11.538;2022-12-07T19:16:17;1.90;99.90
7413;DHT22;3748;48.136;11.538;2022-12-07T19:18:44;1.90;99.90
7413;DHT22;3748;48.136;11.538;2022-12-07T19:21:12;1.80;99.90
7413;DHT22;3748;48.136;11.538;2022-12-07T19:23:40;1.80;99.90
7413;DHT22;3748;48.136;11.538;2022-12-07T19:26:08;1.80;99.90
7413;DHT22;3748;48.136;11.538;2022-12-07T19:28:35;1.70;99.90
7413;DHT22;3748;48.136;11.538;2022-12-07T19:31:04;1.70;99.90
7413;DHT22;3748;48.136;11.538;2022-12-07T19:33:32;1.70;99.90
7413;DHT22;3748;48.136;11.538;2022-12-07T19:35:59;1.70;99.90
7413;DHT22;3748;48.136;11.538;2022-12-07T19:38:26;1.70;99.90
7413;DHT22;3748;48.136;11.538;2022-12-07T19:40:53;1.70;99.90
7413;DHT22;3748;48.136;11.538;2022-12-07T19:43:22;1.70;99.90
7413;DHT22;3748;48.136;11.538;2022-12-07T19:45:49;1.80;99.90
7413;DHT22;3748;48.136;11.538;2022-12-07T19:48:16;1.70;99.90
7413;DHT22;3748;48.136;11.538;2022-12-07T19:50:43;1.70;99.90
7413;DHT22;3748;48.136;11.538;2022-12-07T19:53:12;1.60;99.90
7413;DHT22;3748;48.136;11.538;2022-12-07T19:55:40;1.70;99.90
7413;DHT22;3748;48.136;11.538;2022-12-07T19:58:07;1.60;99.90
7413;DHT22;3748;48.136;11.538;2022-12-07T20:00:36;1.70;99.90
7413;DHT22;3748;48.136;11.538;2022-12-07T20:03:03;1.70;99.90
7413;DHT22;3748;48.136;11.538;2022-12-07T20:05:30;1.70;99.90
7413;DHT22;3748;48.136;11.538;2022-12-07T20:07:57;1.70;99.90
7413;DHT22;3748;48.136;11.538;2022-12-07T20:10:24;1.80;99.90
7413;DHT22;3748;48.136;11.538;2022-12-07T20:12:50;1.80;99.90
7413;DHT22;3748;48.136;11.538;2022-12-07T20:15:37;1.80;99.90
7413;DHT22;3748;48.136;11.538;2022-12-07T20:18:04;1.90;99.90
7413;DHT22;3748;48.136;11.538;2022-12-07T20:20:31;1.90;99.90
7413;DHT22;3748;48.136;11.538;2022-12-07T20:22:58;1.80;99.90
7413;DHT22;3748;48.136;11.538;2022-12-07T20:25:25;1.80;99.90
7413;DHT22;3748;48.136;11.538;2022-12-07T20:27:52;1.80;99.90
7413;DHT22;3748;48.136;11.538;2022-12-07T20:30:19;1.80;99.90
7413;DHT22;3748;48.136;11.538;2022-12-07T20:32:48;2.00;99.90
7413;DHT22;3748;48.136;11.538;2022-12-07T20:35:15;2.20;99.90
7413;DHT22;3748;48.136;11.538;2022-12-07T20:37:42;2.10;99.90
7413;DHT22;3748;48.136;11.538;2022-12-07T20:40:10;2.00;99.90
7413;DHT22;3748;48.136;11.538;2022-12-07T20:42:37;2.10;99.90
7413;DHT22;3748;48.136;11.538;2022-12-07T20:45:04;2.20;99.90
7413;DHT22;3748;48.136;11.538;2022-12-07T20:47:33;2.20;99.90
7413;DHT22;3748;48.136;11.538;2022-12-07T20:50:01;2.30;99.90
7413;DHT22;3748;48.136;11.538;2022-12-07T20:52:29;2.20;99.90
7413;DHT22;3748;48.136;11.538;2022-12-07T20:54:56;2.30;99.90
7413;DHT22;3748;48.136;11.538;2022-12-07T20:57:23;2.30;99.90
7413;DHT22;3748;48.136;11.538;2022-12-07T20:59:50;2.50;99.90
7413;DHT22;3748;48.136;11.538;2022-12-07T21:02:17;2.20;99.90
7413;DHT22;3748;48.136;11.538;2022-12-07T21:04:44;2.30;99.90
7413;DHT22;3748;48.136;11.538;2022-12-07T21:07:23;2.30;99.90
7413;DHT22;3748;48.136;11.538;2022-12-07T21:09:50;2.20;99.90
7413;DHT22;3748;48.136;11.538;2022-12-07T21:12:25;1.90;99.90
7413;DHT22;3748;48.136;11.538;2022-12-07T21:14:54;1.80;99.90
7413;DHT22;3748;48.136;11.538;2022-12-07T21:17:21;1.80;99.90
7413;DHT22;3748;48.136;11.538;2022-12-07T21:19:49;1.70;99.90
7413;DHT22;3748;48.136;11.538;2022-12-07T21:22:18;1.70;99.90
7413;DHT22;3748;48.136;11.538;2022-12-07T21:24:45;1.70;99.90
7413;DHT22;3748;48.136;11.538;2022-12-07T21:27:12;1.70;99.90
7413;DHT22;3748;48.136;11.538;2022-12-07T21:29:45;1.70;99.90
7413;DHT22;3748;48.136;11.538;2022-12-07T21:32:18;1.70;99.90
7413;DHT22;3748;48.136;11.538;2022-12-07T21:34:45;1.70;99.90
7413;DHT22;3748;48.136;11.538;2022-12-07T21:37:12;1.70;99.90
7413;DHT22;3748;48.136;11.538;2022-12-07T21:39:42;2.00;99.90
7413;DHT22;3748;48.136;11.538;2022-12-07T21:42:09;1.80;99.90
7413;DHT22;3748;48.136;11.538;2022-12-07T21:44:41;1.70;99.90